Main page
METAR-TAF:

METAR-TAF

Airports :

Vigo–Peinador Airport

Vigo, Spain

latitude: 42-13N, longitude: 008-38W, elevation: 264 m

Current weather observation

The report was made 16 minutes ago, at 11:30 UTC
Wind 7 kt from the West/Southwest, varying between South/Southwest and West
Temperature 25°C
Humidity 69%
Pressure 1015 hPa
Visibility 10 km or more
Few clouds at a height of 3000 ft

METAR: LEVX 231130Z 25007KT 210V280 9999 FEW030 25/19 Q1015 NOSIG

Time: 13:46 (11:46 UTC)

Forecast

The report was made 46 minutes ago, at 11:00 UTC
Forecast valid from 23 at 12 UTC to 24 at 12 UTC
Wind 5 kt from variable directions
Visibility 10 km or more
no clouds below 1500 m and no cumulonimbus
Temporary
from 23 at 23 UTC to 24 at 06 UTC
Visibility: 3000 m
mist

TAF: LEVX 231100Z 2312/2412 VRB05KT CAVOK TX28/2314Z TN16/2406Z TEMPO 2323/2406 3000 BR

Weather observations and forecasts of more than 4000 airports (METAR and TAF reports).

The available stations are represented by yellow and red dots on the map.

Hover mouse over dot to see the name of the station.

Then click to see weather observations and forecasts.

To change the map : click on the green buttons with a black cross to zoom in, on the green button with a dash to zoom out, or on the green arrows for adjacent maps.


METAR-TAF: